createdAt,value
2022-12-03T00:01:48.961Z,94.35
2022-12-03T00:04:15.612Z,94.41
2022-12-03T00:06:42.359Z,94.35
2022-12-03T00:09:09.153Z,94.32
2022-12-03T00:11:35.820Z,94.28
2022-12-03T00:14:02.765Z,94.25
2022-12-03T00:16:29.411Z,94.23
2022-12-03T00:18:56.202Z,94.32
2022-12-03T00:21:24.638Z,94.54
2022-12-03T00:23:51.806Z,94.63
2022-12-03T00:26:18.516Z,94.63
2022-12-03T00:28:45.175Z,94.61
2022-12-03T00:31:13.249Z,94.65
2022-12-03T00:33:40.106Z,94.61
2022-12-03T00:36:07.288Z,94.66
2022-12-03T00:38:33.879Z,94.56
2022-12-03T00:41:00.730Z,94.56
2022-12-03T00:43:27.438Z,94.51
2022-12-03T00:45:54.203Z,94.52
2022-12-03T00:48:20.816Z,94.57
2022-12-03T00:50:47.653Z,94.61
2022-12-03T00:53:14.350Z,94.62
2022-12-03T00:55:41.045Z,94.79
2022-12-03T00:58:10.536Z,94.79
2022-12-03T01:00:37.949Z,94.70
2022-12-03T01:03:05.459Z,94.64
2022-12-03T01:05:32.189Z,94.61
2022-12-03T01:07:59.063Z,94.54
2022-12-03T01:10:25.926Z,94.52
2022-12-03T01:12:52.655Z,94.55
2022-12-03T01:15:19.318Z,94.47
2022-12-03T01:17:46.199Z,94.57
2022-12-03T01:20:13.087Z,94.48
2022-12-03T01:22:40.040Z,94.41
2022-12-03T01:25:07.772Z,94.44
2022-12-03T01:27:34.651Z,94.39
2022-12-03T01:30:01.628Z,94.48
2022-12-03T01:32:28.251Z,94.53
2022-12-03T01:34:55.934Z,94.64
2022-12-03T01:37:25.128Z,94.64
2022-12-03T01:39:52.037Z,94.61
2022-12-03T01:42:25.333Z,94.66
2022-12-03T01:44:54.379Z,94.67
2022-12-03T01:47:27.444Z,94.62
2022-12-03T01:50:07.208Z,94.58
2022-12-03T01:52:37.794Z,94.62
2022-12-03T01:55:12.036Z,94.59
2022-12-03T01:57:46.013Z,94.65
2022-12-03T02:00:18.058Z,94.58
2022-12-03T02:02:47.800Z,94.64
2022-12-03T02:05:22.145Z,94.74
2022-12-03T02:07:50.049Z,94.89
2022-12-03T02:10:20.576Z,94.94
2022-12-03T02:12:57.123Z,94.93
2022-12-03T02:15:24.389Z,94.88
2022-12-03T02:17:51.767Z,94.82
2022-12-03T02:20:19.430Z,94.86
2022-12-03T02:22:50.641Z,94.93
2022-12-03T02:25:26.684Z,95.10
2022-12-03T02:27:54.792Z,95.08
2022-12-03T02:30:25.517Z,95.10
2022-12-03T02:32:53.542Z,95.08
2022-12-03T02:35:23.673Z,95.02
2022-12-03T02:38:01.835Z,94.92
2022-12-03T02:40:31.915Z,94.91
2022-12-03T02:43:02.472Z,94.93
2022-12-03T02:45:33.736Z,94.93
2022-12-03T02:48:04.528Z,94.83
2022-12-03T02:50:39.464Z,94.80
2022-12-03T02:53:11.627Z,94.75
2022-12-03T02:55:39.785Z,94.77
2022-12-03T02:58:07.238Z,94.83
2022-12-03T03:00:35.552Z,94.83
2022-12-03T03:03:04.599Z,94.80
2022-12-03T03:05:32.631Z,94.77
2022-12-03T03:08:00.369Z,94.80
2022-12-03T03:10:28.574Z,94.88
2022-12-03T03:12:55.910Z,94.91
2022-12-03T03:15:23.978Z,94.99
2022-12-03T03:17:51.249Z,95.06
2022-12-03T03:20:19.164Z,95.06
2022-12-03T03:22:45.893Z,95.16
2022-12-03T03:25:16.083Z,95.18
2022-12-03T03:27:44.219Z,95.13
2022-12-03T03:30:11.493Z,95.22
2022-12-03T03:32:39.458Z,95.29
2022-12-03T03:35:08.469Z,95.29
2022-12-03T03:37:35.699Z,95.18
2022-12-03T03:40:03.181Z,95.14
2022-12-03T03:42:29.755Z,95.17
2022-12-03T03:44:57.687Z,95.27
2022-12-03T03:47:25.258Z,95.24
2022-12-03T03:49:52.686Z,95.18
2022-12-03T03:52:20.147Z,95.13
2022-12-03T03:54:46.958Z,95.15
2022-12-03T03:57:13.991Z,95.16
2022-12-03T03:59:41.117Z,95.15
2022-12-03T04:02:19.899Z,95.14
2022-12-03T04:04:48.070Z,95.20
2022-12-03T04:07:15.927Z,95.20
2022-12-03T04:09:43.235Z,95.36
2022-12-03T04:12:30.580Z,95.29
2022-12-03T04:14:57.567Z,95.34
2022-12-03T04:17:24.523Z,95.43
2022-12-03T04:19:51.357Z,95.41
2022-12-03T04:22:36.640Z,95.40
2022-12-03T04:25:22.792Z,95.35
2022-12-03T04:28:11.815Z,95.29
2022-12-03T04:30:38.874Z,95.23
2022-12-03T04:33:24.210Z,95.19
2022-12-03T04:35:51.369Z,95.28
2022-12-03T04:38:18.211Z,95.28
2022-12-03T04:41:00.123Z,95.34
2022-12-03T04:43:27.911Z,95.30
2022-12-03T04:45:54.693Z,95.39
2022-12-03T04:48:21.451Z,95.54
2022-12-03T04:50:48.253Z,95.47
2022-12-03T04:53:15.181Z,95.45
2022-12-03T04:55:42.700Z,95.51
2022-12-03T04:58:10.119Z,95.55
2022-12-03T05:00:36.879Z,95.41
2022-12-03T05:03:04.201Z,95.38
2022-12-03T05:05:31.494Z,95.49
2022-12-03T05:07:58.189Z,95.59
2022-12-03T05:10:25.179Z,95.55
2022-12-03T05:12:51.808Z,95.56
2022-12-03T05:15:18.497Z,95.60
2022-12-03T05:17:45.295Z,95.67
2022-12-03T05:20:31.236Z,95.65
2022-12-03T05:22:57.969Z,95.70
2022-12-03T05:25:24.654Z,95.69
2022-12-03T05:27:51.367Z,95.68
2022-12-03T05:30:18.417Z,95.63
2022-12-03T05:33:10.772Z,95.74
2022-12-03T05:35:37.614Z,95.74
2022-12-03T05:38:04.311Z,95.77
2022-12-03T05:40:31.048Z,95.68
2022-12-03T05:43:00.593Z,95.69
2022-12-03T05:45:30.535Z,95.66
2022-12-03T05:47:58.984Z,95.74
2022-12-03T05:50:29.062Z,95.72
2022-12-03T05:52:56.905Z,95.81
2022-12-03T05:55:24.842Z,95.94
2022-12-03T05:57:51.920Z,95.85
2022-12-03T06:00:20.695Z,96.02
2022-12-03T06:02:47.629Z,96.02
2022-12-03T06:05:16.506Z,96.09
2022-12-03T06:07:43.459Z,96.30
2022-12-03T06:10:12.220Z,96.44
2022-12-03T06:12:39.198Z,96.48
2022-12-03T06:15:06.987Z,96.44
2022-12-03T06:17:33.796Z,96.49
2022-12-03T06:20:00.786Z,96.55
2022-12-03T06:22:27.534Z,96.70
2022-12-03T06:24:54.467Z,96.89
2022-12-03T06:27:21.262Z,96.93
2022-12-03T06:29:48.251Z,96.90
2022-12-03T06:32:15.133Z,96.83
2022-12-03T06:34:41.728Z,96.87
2022-12-03T06:37:08.560Z,96.91
2022-12-03T06:39:35.395Z,96.88
2022-12-03T06:42:02.339Z,96.98
2022-12-03T06:44:29.119Z,97.24
2022-12-03T06:46:55.873Z,97.37
2022-12-03T06:49:22.619Z,97.44
2022-12-03T06:51:49.524Z,97.61
2022-12-03T06:54:16.449Z,97.61
2022-12-03T06:56:45.462Z,97.67
2022-12-03T06:59:12.904Z,97.69
2022-12-03T07:01:39.756Z,97.75
2022-12-03T07:04:06.543Z,97.79
2022-12-03T07:06:33.355Z,97.94
2022-12-03T07:08:59.970Z,98.07
2022-12-03T07:11:31.423Z,98.15
2022-12-03T07:14:05.033Z,98.04
2022-12-03T07:16:36.296Z,98.08
2022-12-03T07:19:04.673Z,98.13
2022-12-03T07:21:31.752Z,98.15
2022-12-03T07:23:58.668Z,98.14
2022-12-03T07:26:25.499Z,98.21
2022-12-03T07:28:52.267Z,98.20
2022-12-03T07:31:19.144Z,98.17
2022-12-03T07:33:45.983Z,98.26
2022-12-03T07:36:12.728Z,98.22
2022-12-03T07:38:39.668Z,98.23
2022-12-03T07:41:06.766Z,97.98
2022-12-03T07:43:33.576Z,98.06
2022-12-03T07:46:00.270Z,98.21
2022-12-03T07:48:27.451Z,98.21
2022-12-03T07:50:54.362Z,98.22
2022-12-03T07:53:21.277Z,98.23
2022-12-03T07:55:47.810Z,98.12
2022-12-03T07:58:14.626Z,98.11
2022-12-03T08:00:41.543Z,97.97
2022-12-03T08:03:08.374Z,97.86
2022-12-03T08:05:34.954Z,97.73
2022-12-03T08:08:01.844Z,97.74
2022-12-03T08:10:28.710Z,97.59
2022-12-03T08:12:58.567Z,97.66
2022-12-03T08:15:32.252Z,97.76
2022-12-03T08:18:04.946Z,97.84
2022-12-03T08:20:37.118Z,97.93
2022-12-03T08:23:11.142Z,98.00
2022-12-03T08:25:37.901Z,98.32
2022-12-03T08:28:23.388Z,98.44
2022-12-03T08:31:20.581Z,98.64
2022-12-03T08:33:49.654Z,98.87
2022-12-03T08:36:30.764Z,99.07
2022-12-03T08:39:15.326Z,99.05
2022-12-03T08:42:00.854Z,99.06
2022-12-03T08:44:29.238Z,99.16
2022-12-03T08:47:19.364Z,99.27
2022-12-03T08:50:25.155Z,99.24
2022-12-03T08:52:53.608Z,99.05
2022-12-03T08:55:37.968Z,98.98
2022-12-03T08:58:22.560Z,98.82
2022-12-03T09:00:56.332Z,98.64
2022-12-03T09:03:24.058Z,98.32
2022-12-03T09:05:51.280Z,98.22
2022-12-03T09:08:18.086Z,98.11
2022-12-03T09:10:44.990Z,97.57
2022-12-03T09:13:11.594Z,97.38
2022-12-03T09:15:38.512Z,96.97
2022-12-03T09:18:05.172Z,96.78
2022-12-03T09:20:31.907Z,96.63
2022-12-03T09:22:58.679Z,96.37
2022-12-03T09:25:25.462Z,95.89
2022-12-03T09:27:52.467Z,95.54
2022-12-03T09:30:19.098Z,95.02
2022-12-03T09:32:45.964Z,94.72
2022-12-03T09:35:12.597Z,94.71
2022-12-03T09:37:39.366Z,94.25
2022-12-03T09:40:07.473Z,94.09
2022-12-03T09:42:34.581Z,93.88
2022-12-03T09:45:02.363Z,93.46
2022-12-03T09:47:30.392Z,93.35
2022-12-03T09:49:57.919Z,93.43
2022-12-03T09:52:27.734Z,93.58
2022-12-03T09:54:54.994Z,93.22
2022-12-03T09:57:22.022Z,93.03
2022-12-03T09:59:48.923Z,92.87
2022-12-03T10:02:35.977Z,93.01
2022-12-03T10:05:02.906Z,92.98
2022-12-03T10:07:29.823Z,93.01
2022-12-03T10:09:56.844Z,92.98
2022-12-03T10:12:24.389Z,92.97
2022-12-03T10:14:53.029Z,92.79
2022-12-03T10:17:20.808Z,92.45
2022-12-03T10:19:48.658Z,92.59
2022-12-03T10:22:15.435Z,92.50
2022-12-03T10:24:44.193Z,92.54
2022-12-03T10:27:29.627Z,92.56
2022-12-03T10:29:58.452Z,92.26
2022-12-03T10:32:37.769Z,92.35
2022-12-03T10:35:37.073Z,92.06
2022-12-03T10:38:06.821Z,91.87
2022-12-03T10:40:36.672Z,91.84
2022-12-03T10:43:18.922Z,91.70
2022-12-03T10:46:04.117Z,91.79
2022-12-03T10:48:31.234Z,91.43
2022-12-03T10:51:25.713Z,91.40
2022-12-03T10:53:53.863Z,91.36
2022-12-03T10:56:24.855Z,91.46
2022-12-03T10:58:51.898Z,91.55
2022-12-03T11:01:22.825Z,91.77
2022-12-03T11:03:50.244Z,92.05
2022-12-03T11:06:20.384Z,92.16
2022-12-03T11:08:57.141Z,92.34
2022-12-03T11:11:28.405Z,92.15
2022-12-03T11:14:04.450Z,92.18
2022-12-03T11:16:40.196Z,92.33
2022-12-03T11:19:12.904Z,92.43
2022-12-03T11:22:16.890Z,92.57
2022-12-03T11:24:44.356Z,92.72
2022-12-03T11:27:11.087Z,93.01
2022-12-03T11:29:59.050Z,93.03
2022-12-03T11:32:37.690Z,92.90
2022-12-03T11:35:22.496Z,92.80
2022-12-03T11:37:49.348Z,92.90
2022-12-03T11:40:16.060Z,92.70
2022-12-03T11:42:44.841Z,92.60
2022-12-03T11:45:37.091Z,92.37
2022-12-03T11:48:13.590Z,92.39
2022-12-03T11:50:42.563Z,92.42
2022-12-03T11:53:22.259Z,92.39
2022-12-03T11:56:04.067Z,92.63
2022-12-03T11:58:32.498Z,92.49
2022-12-03T12:01:03.110Z,92.26
2022-12-03T12:03:33.190Z,92.05
2022-12-03T12:06:09.309Z,92.19
2022-12-03T12:08:56.643Z,92.17
2022-12-03T12:11:27.874Z,92.22
2022-12-03T12:13:58.378Z,92.30
2022-12-03T12:16:50.194Z,91.85
2022-12-03T12:19:42.824Z,91.83
2022-12-03T12:22:15.269Z,92.06
2022-12-03T12:24:45.288Z,92.07
2022-12-03T12:27:21.370Z,92.00
2022-12-03T12:29:55.128Z,92.09
2022-12-03T12:32:38.229Z,92.01
2022-12-03T12:35:20.822Z,92.13
2022-12-03T12:37:58.545Z,91.73
2022-12-03T12:40:32.419Z,91.63
2022-12-03T12:43:08.191Z,91.70
2022-12-03T12:45:41.764Z,91.63
2022-12-03T12:48:14.729Z,91.62
2022-12-03T12:50:43.572Z,91.71
2022-12-03T12:53:10.519Z,91.61
2022-12-03T12:55:40.318Z,91.72
2022-12-03T12:58:27.837Z,91.57
2022-12-03T13:00:58.141Z,91.72
2022-12-03T13:03:28.276Z,91.70
2022-12-03T13:05:57.111Z,91.76
2022-12-03T13:08:42.205Z,91.51
2022-12-03T13:11:24.179Z,91.43
2022-12-03T13:13:51.605Z,91.32
2022-12-03T13:16:19.370Z,91.26
2022-12-03T13:18:57.775Z,91.32
2022-12-03T13:21:39.982Z,91.21
2022-12-03T13:24:25.507Z,91.11
2022-12-03T13:26:52.725Z,91.19
2022-12-03T13:29:22.265Z,91.15
2022-12-03T13:31:55.431Z,91.13
2022-12-03T13:34:25.912Z,91.18
2022-12-03T13:36:58.132Z,91.17
2022-12-03T13:39:32.709Z,91.08
2022-12-03T13:42:45.358Z,91.08
2022-12-03T13:45:18.301Z,91.22
2022-12-03T13:47:46.371Z,91.32
2022-12-03T13:50:33.690Z,91.31
2022-12-03T13:53:29.106Z,91.47
2022-12-03T13:56:21.246Z,91.58
2022-12-03T13:58:48.043Z,91.73
2022-12-03T14:01:14.865Z,91.63
2022-12-03T14:03:41.699Z,91.65
2022-12-03T14:06:08.340Z,91.84
2022-12-03T14:08:35.141Z,91.92
2022-12-03T14:11:01.716Z,91.92
2022-12-03T14:13:28.494Z,92.06
2022-12-03T14:15:55.402Z,92.22
2022-12-03T14:18:22.408Z,92.32
2022-12-03T14:20:48.979Z,92.44
2022-12-03T14:23:15.809Z,92.46
2022-12-03T14:25:43.399Z,92.54
2022-12-03T14:28:10.498Z,92.67
2022-12-03T14:30:37.271Z,92.82
2022-12-03T14:33:04.209Z,92.91
2022-12-03T14:35:30.979Z,93.19
2022-12-03T14:37:57.792Z,93.39
2022-12-03T14:40:24.747Z,93.49
2022-12-03T14:42:51.352Z,93.59
2022-12-03T14:45:19.713Z,93.83
2022-12-03T14:47:46.610Z,93.88
2022-12-03T14:50:13.666Z,93.85
2022-12-03T14:52:40.363Z,94.37
2022-12-03T14:55:07.574Z,94.53
2022-12-03T14:57:36.236Z,94.56
2022-12-03T15:00:05.169Z,94.54
2022-12-03T15:02:32.218Z,94.76
2022-12-03T15:04:59.064Z,94.85
2022-12-03T15:07:25.937Z,94.79
2022-12-03T15:09:53.176Z,94.92
2022-12-03T15:12:20.257Z,94.92
2022-12-03T15:14:47.051Z,95.10
2022-12-03T15:17:13.827Z,95.36
2022-12-03T15:19:40.919Z,95.48
2022-12-03T15:22:07.573Z,95.62
2022-12-03T15:24:34.517Z,95.58
2022-12-03T15:27:01.239Z,95.57
2022-12-03T15:29:28.254Z,95.55
2022-12-03T15:31:54.937Z,95.69
2022-12-03T15:34:23.196Z,95.69
2022-12-03T15:36:51.010Z,95.80
2022-12-03T15:39:17.851Z,96.04
2022-12-03T15:41:44.706Z,96.08
2022-12-03T15:44:11.455Z,96.03
2022-12-03T15:46:38.370Z,96.10
2022-12-03T15:49:05.286Z,96.21
2022-12-03T15:51:33.081Z,96.29
2022-12-03T15:53:59.670Z,96.19
2022-12-03T15:56:26.713Z,96.21
2022-12-03T15:58:53.738Z,96.22
2022-12-03T16:01:20.957Z,96.15
2022-12-03T16:03:47.915Z,96.13
2022-12-03T16:06:15.075Z,96.30
2022-12-03T16:08:41.787Z,96.38
2022-12-03T16:11:08.621Z,96.40
2022-12-03T16:13:35.344Z,96.45
2022-12-03T16:16:02.472Z,96.61
2022-12-03T16:18:30.163Z,96.59
2022-12-03T16:20:56.854Z,96.48
2022-12-03T16:23:23.874Z,96.61
2022-12-03T16:25:50.541Z,96.87
2022-12-03T16:28:17.517Z,96.77
2022-12-03T16:30:44.486Z,96.62
2022-12-03T16:33:11.505Z,96.66
2022-12-03T16:35:38.157Z,96.62
2022-12-03T16:38:04.995Z,96.75
2022-12-03T16:40:31.770Z,96.92
2022-12-03T16:42:58.658Z,96.79
2022-12-03T16:45:50.330Z,96.80
2022-12-03T16:48:18.109Z,97.00
2022-12-03T16:50:44.797Z,97.00
2022-12-03T16:53:11.606Z,97.00
2022-12-03T16:55:38.491Z,97.05
2022-12-03T16:58:05.198Z,97.11
2022-12-03T17:00:32.026Z,97.09
2022-12-03T17:02:58.706Z,97.39
2022-12-03T17:05:25.625Z,97.45
2022-12-03T17:07:52.523Z,97.59
2022-12-03T17:10:19.301Z,97.63
2022-12-03T17:13:10.162Z,98.02
2022-12-03T17:15:33.590Z,97.94
2022-12-03T17:18:02.852Z,97.96
2022-12-03T17:20:30.715Z,98.02
2022-12-03T17:22:58.840Z,98.10
2022-12-03T17:25:26.315Z,97.99
2022-12-03T17:27:54.097Z,97.92
2022-12-03T17:30:20.967Z,97.85
2022-12-03T17:32:49.793Z,97.85
2022-12-03T17:35:17.376Z,97.89
2022-12-03T17:37:44.435Z,97.93
2022-12-03T17:40:16.316Z,97.96
2022-12-03T17:42:42.964Z,97.95
2022-12-03T17:45:10.527Z,98.02
2022-12-03T17:47:37.606Z,98.00
2022-12-03T17:50:05.273Z,97.97
2022-12-03T17:52:32.242Z,98.02
2022-12-03T17:55:21.544Z,98.03
2022-12-03T17:57:45.637Z,98.16
2022-12-03T18:00:12.799Z,98.19
2022-12-03T18:02:40.527Z,98.30
2022-12-03T18:05:07.759Z,98.38
2022-12-03T18:07:34.672Z,98.43
2022-12-03T18:10:01.908Z,98.41
2022-12-03T18:12:28.510Z,98.47
2022-12-03T18:14:55.268Z,98.45
2022-12-03T18:17:23.681Z,98.53
2022-12-03T18:19:50.700Z,98.58
2022-12-03T18:22:17.657Z,98.45
2022-12-03T18:24:46.258Z,98.54
2022-12-03T18:27:15.099Z,99.14
2022-12-03T18:29:41.939Z,99.25
2022-12-03T18:32:27.276Z,99.50
2022-12-03T18:34:55.949Z,99.50
2022-12-03T18:37:26.796Z,99.82
2022-12-03T18:39:54.733Z,99.95
2022-12-03T18:42:23.329Z,100.00
2022-12-03T18:44:52.090Z,100.00
2022-12-03T18:47:21.789Z,100.00
2022-12-03T18:49:49.065Z,100.00
2022-12-03T20:44:56.158Z,100.00
2022-12-03T20:47:23.259Z,100.00
2022-12-03T20:49:50.165Z,100.00
2022-12-03T20:52:16.999Z,100.00
2022-12-03T20:54:44.063Z,100.00
2022-12-03T20:57:10.729Z,100.00
2022-12-03T20:59:37.413Z,100.00
2022-12-03T21:02:04.398Z,100.00
2022-12-03T21:04:31.467Z,100.00
2022-12-03T21:06:58.240Z,100.00
2022-12-03T21:09:24.867Z,100.00
2022-12-03T21:11:51.594Z,100.00
2022-12-03T21:14:18.480Z,100.00
2022-12-03T21:19:35.502Z,100.00
2022-12-03T21:22:02.309Z,100.00
2022-12-03T21:24:29.498Z,100.00
2022-12-03T21:26:56.347Z,100.00
2022-12-03T21:29:23.221Z,100.00
2022-12-03T21:31:50.620Z,100.00
2022-12-03T21:34:17.340Z,100.00
2022-12-03T21:36:44.208Z,100.00
2022-12-03T21:39:10.992Z,100.00
2022-12-03T21:41:37.860Z,100.00
2022-12-03T21:44:04.528Z,100.00
2022-12-03T21:47:11.575Z,100.00
2022-12-03T21:49:19.840Z,100.00
2022-12-03T21:51:49.473Z,100.00
2022-12-03T21:54:16.182Z,100.00
2022-12-03T21:56:43.645Z,100.00
2022-12-03T21:59:10.310Z,100.00
2022-12-03T22:01:37.304Z,100.00
2022-12-03T22:04:04.348Z,100.00
2022-12-03T22:06:31.085Z,100.00
2022-12-03T22:08:57.808Z,100.00
2022-12-03T22:11:24.613Z,100.00
2022-12-03T22:13:51.442Z,100.00
2022-12-03T22:16:20.602Z,100.00
2022-12-03T22:18:47.636Z,100.00
2022-12-03T22:21:17.745Z,100.00
2022-12-03T22:23:44.603Z,100.00
2022-12-03T22:26:14.234Z,100.00
2022-12-03T22:28:49.055Z,100.00
2022-12-03T22:31:17.716Z,100.00
2022-12-03T22:33:47.672Z,100.00
2022-12-03T22:36:20.618Z,100.00
2022-12-03T22:38:49.855Z,100.00
2022-12-03T22:41:17.307Z,100.00
2022-12-03T22:43:44.927Z,100.00
2022-12-03T22:46:12.112Z,100.00
2022-12-03T22:48:39.763Z,100.00
2022-12-03T22:51:15.009Z,100.00
2022-12-03T22:53:41.946Z,100.00
2022-12-03T22:56:08.660Z,100.00
2022-12-03T22:58:37.394Z,100.00
2022-12-03T23:01:05.864Z,100.00
2022-12-03T23:03:32.991Z,100.00
2022-12-03T23:05:59.640Z,100.00
2022-12-03T23:08:26.450Z,100.00
2022-12-03T23:10:53.242Z,100.00
2022-12-03T23:13:20.282Z,100.00
2022-12-03T23:15:50.064Z,100.00
2022-12-03T23:18:18.757Z,100.00
2022-12-03T23:20:52.596Z,100.00
2022-12-03T23:23:20.968Z,100.00
2022-12-03T23:26:05.540Z,100.00
2022-12-03T23:28:35.123Z,100.00
2022-12-03T23:31:03.058Z,100.00
2022-12-03T23:33:33.998Z,100.00
2022-12-03T23:36:05.692Z,100.00
2022-12-03T23:38:32.538Z,100.00
2022-12-03T23:41:14.207Z,100.00
2022-12-03T23:43:41.035Z,100.00
2022-12-03T23:46:17.553Z,100.00
2022-12-03T23:48:45.059Z,100.00
2022-12-03T23:51:14.831Z,100.00
2022-12-03T23:53:42.933Z,100.00
2022-12-03T23:56:21.540Z,100.00
2022-12-03T23:58:48.389Z,100.00
